sensor_id;sensor_type;location;lat;lon;timestamp;P1;durP1;ratioP1;P2;durP2;ratioP2
26474;SDS011;14161;52.270;10.334;2023-05-02T06:18:50;7.03;;;4.85;;
26474;SDS011;14161;52.270;10.334;2023-05-02T06:21:16;5.18;;;3.85;;
26474;SDS011;14161;52.270;10.334;2023-05-02T06:23:42;5.78;;;3.83;;
26474;SDS011;14161;52.270;10.334;2023-05-02T06:26:07;4.03;;;3.22;;
26474;SDS011;14161;52.270;10.334;2023-05-02T06:28:34;3.13;;;2.22;;
26474;SDS011;14161;52.270;10.334;2023-05-02T06:31:00;3.10;;;2.22;;
26474;SDS011;14161;52.270;10.334;2023-05-02T06:33:30;3.53;;;1.67;;
26474;SDS011;14161;52.270;10.334;2023-05-02T06:35:57;3.40;;;1.50;;
26474;SDS011;14161;52.270;10.334;2023-05-02T06:38:23;3.05;;;1.80;;
26474;SDS011;14161;52.270;10.334;2023-05-02T06:40:48;3.65;;;2.00;;
26474;SDS011;14161;52.270;10.334;2023-05-02T06:43:14;4.65;;;1.60;;
26474;SDS011;14161;52.270;10.334;2023-05-02T06:45:40;2.50;;;1.67;;
26474;SDS011;14161;52.270;10.334;2023-05-02T06:48:06;4.15;;;2.00;;
26474;SDS011;14161;52.270;10.334;2023-05-02T06:50:31;3.63;;;2.33;;
26474;SDS011;14161;52.270;10.334;2023-05-02T06:52:57;2.05;;;1.50;;
26474;SDS011;14161;52.270;10.334;2023-05-02T06:55:23;4.35;;;2.42;;
26474;SDS011;14161;52.270;10.334;2023-05-02T06:57:48;2.35;;;1.50;;
26474;SDS011;14161;52.270;10.334;2023-05-02T07:00:17;4.97;;;2.40;;
26474;SDS011;14161;52.270;10.334;2023-05-02T07:02:44;3.83;;;2.42;;
26474;SDS011;14161;52.270;10.334;2023-05-02T07:05:10;5.18;;;2.85;;
26474;SDS011;14161;52.270;10.334;2023-05-02T07:07:36;5.88;;;3.80;;
26474;SDS011;14161;52.270;10.334;2023-05-02T07:10:02;7.45;;;3.10;;
26474;SDS011;14161;52.270;10.334;2023-05-02T07:12:28;4.20;;;2.17;;
26474;SDS011;14161;52.270;10.334;2023-05-02T07:14:53;3.00;;;1.80;;
26474;SDS011;14161;52.270;10.334;2023-05-02T07:17:19;4.20;;;1.90;;
26474;SDS011;14161;52.270;10.334;2023-05-02T07:19:44;5.18;;;1.60;;
26474;SDS011;14161;52.270;10.334;2023-05-02T07:22:10;5.25;;;1.70;;
26474;SDS011;14161;52.270;10.334;2023-05-02T07:24:38;5.22;;;1.85;;
26474;SDS011;14161;52.270;10.334;2023-05-02T07:27:04;7.05;;;1.60;;
26474;SDS011;14161;52.270;10.334;2023-05-02T07:29:30;4.68;;;2.05;;
26474;SDS011;14161;52.270;10.334;2023-05-02T07:31:55;5.40;;;2.05;;
26474;SDS011;14161;52.270;10.334;2023-05-02T07:34:21;3.83;;;1.70;;
26474;SDS011;14161;52.270;10.334;2023-05-02T07:36:46;7.30;;;3.22;;
26474;SDS011;14161;52.270;10.334;2023-05-02T07:39:12;4.30;;;2.28;;
26474;SDS011;14161;52.270;10.334;2023-05-02T07:41:37;7.20;;;2.55;;
26474;SDS011;14161;52.270;10.334;2023-05-02T07:44:03;6.50;;;2.50;;
26474;SDS011;14161;52.270;10.334;2023-05-02T07:46:28;6.60;;;2.22;;
26474;SDS011;14161;52.270;10.334;2023-05-02T07:48:54;9.65;;;3.03;;
26474;SDS011;14161;52.270;10.334;2023-05-02T07:51:19;10.68;;;3.58;;
26474;SDS011;14161;52.270;10.334;2023-05-02T07:53:45;8.23;;;3.28;;
26474;SDS011;14161;52.270;10.334;2023-05-02T07:56:14;9.27;;;3.15;;
26474;SDS011;14161;52.270;10.334;2023-05-02T07:58:39;7.47;;;3.45;;
26474;SDS011;14161;52.270;10.334;2023-05-02T08:01:05;7.97;;;2.58;;
26474;SDS011;14161;52.270;10.334;2023-05-02T08:03:30;16.42;;;4.82;;
26474;SDS011;14161;52.270;10.334;2023-05-02T08:05:56;9.90;;;3.03;;
26474;SDS011;14161;52.270;10.334;2023-05-02T08:08:21;11.10;;;3.83;;
26474;SDS011;14161;52.270;10.334;2023-05-02T08:10:47;8.30;;;3.63;;
26474;SDS011;14161;52.270;10.334;2023-05-02T08:13:15;12.43;;;3.67;;
26474;SDS011;14161;52.270;10.334;2023-05-02T08:15:41;9.60;;;4.32;;
26474;SDS011;14161;52.270;10.334;2023-05-02T08:18:06;14.65;;;4.68;;
26474;SDS011;14161;52.270;10.334;2023-05-02T08:20:32;9.63;;;3.38;;
26474;SDS011;14161;52.270;10.334;2023-05-02T08:22:57;9.98;;;3.42;;
26474;SDS011;14161;52.270;10.334;2023-05-02T08:25:23;10.38;;;3.95;;
26474;SDS011;14161;52.270;10.334;2023-05-02T08:27:48;12.70;;;4.80;;
26474;SDS011;14161;52.270;10.334;2023-05-02T08:30:13;12.65;;;3.50;;
26474;SDS011;14161;52.270;10.334;2023-05-02T08:32:39;10.90;;;4.60;;
26474;SDS011;14161;52.270;10.334;2023-05-02T08:35:05;10.20;;;3.78;;
26474;SDS011;14161;52.270;10.334;2023-05-02T08:37:30;6.00;;;2.85;;
26474;SDS011;14161;52.270;10.334;2023-05-02T08:39:56;9.48;;;3.03;;
26474;SDS011;14161;52.270;10.334;2023-05-02T08:42:21;9.07;;;2.70;;
26474;SDS011;14161;52.270;10.334;2023-05-02T08:44:47;6.15;;;2.22;;
26474;SDS011;14161;52.270;10.334;2023-05-02T08:47:13;7.68;;;2.95;;
26474;SDS011;14161;52.270;10.334;2023-05-02T08:49:39;5.35;;;2.38;;
26474;SDS011;14161;52.270;10.334;2023-05-02T08:52:06;11.73;;;2.80;;
26474;SDS011;14161;52.270;10.334;2023-05-02T08:54:33;8.70;;;2.72;;
26474;SDS011;14161;52.270;10.334;2023-05-02T08:57:02;4.22;;;1.88;;
26474;SDS011;14161;52.270;10.334;2023-05-02T08:59:28;8.68;;;2.40;;
26474;SDS011;14161;52.270;10.334;2023-05-02T09:01:54;8.88;;;2.67;;
26474;SDS011;14161;52.270;10.334;2023-05-02T09:04:29;10.00;;;2.53;;
26474;SDS011;14161;52.270;10.334;2023-05-02T09:06:56;10.18;;;2.55;;
26474;SDS011;14161;52.270;10.334;2023-05-02T09:09:22;6.97;;;2.55;;
26474;SDS011;14161;52.270;10.334;2023-05-02T09:11:49;8.15;;;2.33;;
26474;SDS011;14161;52.270;10.334;2023-05-02T09:14:16;6.65;;;2.17;;
26474;SDS011;14161;52.270;10.334;2023-05-02T09:16:41;6.90;;;2.60;;
26474;SDS011;14161;52.270;10.334;2023-05-02T09:19:07;7.55;;;2.28;;
26474;SDS011;14161;52.270;10.334;2023-05-02T09:24:13;6.60;;;2.05;;
26474;SDS011;14161;52.270;10.334;2023-05-02T09:26:41;8.15;;;2.38;;
26474;SDS011;14161;52.270;10.334;2023-05-02T09:29:08;6.13;;;1.80;;
26474;SDS011;14161;52.270;10.334;2023-05-02T09:31:34;7.65;;;1.88;;
26474;SDS011;14161;52.270;10.334;2023-05-02T09:34:07;4.13;;;1.70;;
26474;SDS011;14161;52.270;10.334;2023-05-02T09:36:41;6.07;;;1.88;;
26474;SDS011;14161;52.270;10.334;2023-05-02T09:39:12;6.87;;;2.03;;
26474;SDS011;14161;52.270;10.334;2023-05-02T09:41:42;3.67;;;1.30;;
26474;SDS011;14161;52.270;10.334;2023-05-02T09:44:12;5.57;;;1.35;;
26474;SDS011;14161;52.270;10.334;2023-05-02T09:46:39;2.80;;;1.48;;
26474;SDS011;14161;52.270;10.334;2023-05-02T09:49:11;4.70;;;1.55;;
26474;SDS011;14161;52.270;10.334;2023-05-02T09:51:36;4.10;;;1.55;;
26474;SDS011;14161;52.270;10.334;2023-05-02T09:54:02;4.05;;;1.60;;
26474;SDS011;14161;52.270;10.334;2023-05-02T09:56:28;2.42;;;1.27;;
26474;SDS011;14161;52.270;10.334;2023-05-02T09:59:13;5.45;;;1.83;;
26474;SDS011;14161;52.270;10.334;2023-05-02T10:01:39;3.88;;;1.45;;
26474;SDS011;14161;52.270;10.334;2023-05-02T10:04:06;5.18;;;1.70;;
26474;SDS011;14161;52.270;10.334;2023-05-02T10:06:41;5.57;;;1.58;;
26474;SDS011;14161;52.270;10.334;2023-05-02T10:09:08;5.82;;;1.63;;
26474;SDS011;14161;52.270;10.334;2023-05-02T10:11:34;7.20;;;1.55;;
26474;SDS011;14161;52.270;10.334;2023-05-02T10:14:02;5.05;;;1.65;;
26474;SDS011;14161;52.270;10.334;2023-05-02T10:16:30;8.98;;;2.00;;
26474;SDS011;14161;52.270;10.334;2023-05-02T10:19:01;3.22;;;1.33;;
26474;SDS011;14161;52.270;10.334;2023-05-02T10:21:27;2.88;;;1.00;;
26474;SDS011;14161;52.270;10.334;2023-05-02T10:23:54;3.55;;;1.42;;
26474;SDS011;14161;52.270;10.334;2023-05-02T10:26:20;7.70;;;2.15;;
26474;SDS011;14161;52.270;10.334;2023-05-02T10:28:47;4.68;;;1.67;;
26474;SDS011;14161;52.270;10.334;2023-05-02T10:31:13;5.20;;;1.63;;
26474;SDS011;14161;52.270;10.334;2023-05-02T10:33:40;3.75;;;1.55;;
26474;SDS011;14161;52.270;10.334;2023-05-02T10:36:06;9.45;;;2.17;;
26474;SDS011;14161;52.270;10.334;2023-05-02T10:38:37;7.65;;;1.98;;
26474;SDS011;14161;52.270;10.334;2023-05-02T10:41:04;2.88;;;1.40;;
26474;SDS011;14161;52.270;10.334;2023-05-02T10:43:34;5.47;;;1.65;;
26474;SDS011;14161;52.270;10.334;2023-05-02T10:46:00;4.03;;;1.67;;
26474;SDS011;14161;52.270;10.334;2023-05-02T10:48:27;4.72;;;1.58;;
26474;SDS011;14161;52.270;10.334;2023-05-02T10:50:54;3.35;;;1.50;;
26474;SDS011;14161;52.270;10.334;2023-05-02T10:53:21;3.42;;;1.70;;
26474;SDS011;14161;52.270;10.334;2023-05-02T10:58:41;3.03;;;1.40;;
26474;SDS011;14161;52.270;10.334;2023-05-02T11:06:26;3.63;;;1.85;;
26474;SDS011;14161;52.270;10.334;2023-05-02T11:11:41;7.85;;;1.77;;
26474;SDS011;14161;52.270;10.334;2023-05-02T11:14:10;4.88;;;1.48;;
26474;SDS011;14161;52.270;10.334;2023-05-02T11:22:29;4.80;;;1.83;;
26474;SDS011;14161;52.270;10.334;2023-05-02T11:24:56;8.00;;;1.73;;
26474;SDS011;14161;52.270;10.334;2023-05-02T11:29:56;4.45;;;1.70;;
26474;SDS011;14161;52.270;10.334;2023-05-02T11:37:55;6.22;;;2.05;;
26474;SDS011;14161;52.270;10.334;2023-05-02T11:40:24;3.58;;;1.75;;
26474;SDS011;14161;52.270;10.334;2023-05-02T11:42:51;6.97;;;1.83;;
26474;SDS011;14161;52.270;10.334;2023-05-02T11:45:17;7.07;;;1.80;;
26474;SDS011;14161;52.270;10.334;2023-05-02T11:47:43;4.35;;;1.60;;
26474;SDS011;14161;52.270;10.334;2023-05-02T11:50:10;6.43;;;2.33;;
26474;SDS011;14161;52.270;10.334;2023-05-02T11:52:40;4.72;;;2.03;;
26474;SDS011;14161;52.270;10.334;2023-05-02T11:55:06;5.30;;;2.13;;
26474;SDS011;14161;52.270;10.334;2023-05-02T11:57:34;5.90;;;2.00;;
26474;SDS011;14161;52.270;10.334;2023-05-02T11:59:59;4.25;;;1.90;;
26474;SDS011;14161;52.270;10.334;2023-05-02T12:02:41;8.18;;;2.08;;
26474;SDS011;14161;52.270;10.334;2023-05-02T12:05:08;10.00;;;2.65;;
26474;SDS011;14161;52.270;10.334;2023-05-02T12:10:07;5.65;;;2.03;;
26474;SDS011;14161;52.270;10.334;2023-05-02T12:12:33;5.45;;;2.10;;
26474;SDS011;14161;52.270;10.334;2023-05-02T12:15:06;5.47;;;2.50;;
26474;SDS011;14161;52.270;10.334;2023-05-02T12:17:33;13.43;;;2.35;;
26474;SDS011;14161;52.270;10.334;2023-05-02T12:20:02;5.38;;;2.20;;
26474;SDS011;14161;52.270;10.334;2023-05-02T12:22:29;4.70;;;2.38;;
26474;SDS011;14161;52.270;10.334;2023-05-02T12:24:54;4.97;;;2.17;;
26474;SDS011;14161;52.270;10.334;2023-05-02T12:27:20;6.10;;;2.80;;
26474;SDS011;14161;52.270;10.334;2023-05-02T12:29:46;5.63;;;2.67;;
26474;SDS011;14161;52.270;10.334;2023-05-02T12:32:12;8.70;;;3.42;;
26474;SDS011;14161;52.270;10.334;2023-05-02T12:34:38;6.50;;;2.63;;
26474;SDS011;14161;52.270;10.334;2023-05-02T12:37:04;5.38;;;2.70;;
26474;SDS011;14161;52.270;10.334;2023-05-02T12:39:34;12.70;;;3.03;;
26474;SDS011;14161;52.270;10.334;2023-05-02T12:42:07;5.20;;;2.65;;
26474;SDS011;14161;52.270;10.334;2023-05-02T12:44:36;5.32;;;2.65;;
26474;SDS011;14161;52.270;10.334;2023-05-02T12:47:13;6.57;;;2.17;;
26474;SDS011;14161;52.270;10.334;2023-05-02T12:52:15;7.38;;;2.30;;
26474;SDS011;14161;52.270;10.334;2023-05-02T12:54:41;5.13;;;2.40;;
26474;SDS011;14161;52.270;10.334;2023-05-02T12:57:07;10.75;;;2.90;;
26474;SDS011;14161;52.270;10.334;2023-05-02T12:59:32;9.20;;;2.42;;
26474;SDS011;14161;52.270;10.334;2023-05-02T13:01:58;7.95;;;2.28;;
26474;SDS011;14161;52.270;10.334;2023-05-02T13:04:37;7.88;;;2.47;;
26474;SDS011;14161;52.270;10.334;2023-05-02T13:07:05;5.72;;;2.25;;
26474;SDS011;14161;52.270;10.334;2023-05-02T13:09:31;3.95;;;1.98;;
26474;SDS011;14161;52.270;10.334;2023-05-02T13:11:56;9.00;;;2.30;;
26474;SDS011;14161;52.270;10.334;2023-05-02T13:14:23;7.68;;;2.22;;
26474;SDS011;14161;52.270;10.334;2023-05-02T13:16:49;3.72;;;2.10;;
26474;SDS011;14161;52.270;10.334;2023-05-02T13:19:17;5.95;;;2.10;;
26474;SDS011;14161;52.270;10.334;2023-05-02T13:21:43;5.50;;;2.75;;
26474;SDS011;14161;52.270;10.334;2023-05-02T13:24:08;4.47;;;2.28;;
26474;SDS011;14161;52.270;10.334;2023-05-02T13:26:34;4.43;;;2.03;;
26474;SDS011;14161;52.270;10.334;2023-05-02T13:29:00;6.13;;;2.05;;
26474;SDS011;14161;52.270;10.334;2023-05-02T13:31:25;8.57;;;2.67;;
26474;SDS011;14161;52.270;10.334;2023-05-02T13:33:51;6.47;;;2.50;;
26474;SDS011;14161;52.270;10.334;2023-05-02T13:36:16;7.60;;;2.78;;
26474;SDS011;14161;52.270;10.334;2023-05-02T13:38:42;8.77;;;2.60;;
26474;SDS011;14161;52.270;10.334;2023-05-02T13:41:07;5.60;;;2.30;;
26474;SDS011;14161;52.270;10.334;2023-05-02T13:43:33;8.32;;;2.38;;
26474;SDS011;14161;52.270;10.334;2023-05-02T13:45:58;5.03;;;2.50;;
26474;SDS011;14161;52.270;10.334;2023-05-02T13:48:24;5.05;;;2.35;;
26474;SDS011;14161;52.270;10.334;2023-05-02T13:50:49;4.97;;;2.33;;
26474;SDS011;14161;52.270;10.334;2023-05-02T13:53:15;5.95;;;2.22;;
26474;SDS011;14161;52.270;10.334;2023-05-02T13:55:41;8.90;;;2.33;;
26474;SDS011;14161;52.270;10.334;2023-05-02T13:58:06;8.73;;;3.17;;
26474;SDS011;14161;52.270;10.334;2023-05-02T14:00:32;5.13;;;2.42;;
26474;SDS011;14161;52.270;10.334;2023-05-02T14:02:58;5.30;;;2.58;;
26474;SDS011;14161;52.270;10.334;2023-05-02T14:05:24;5.90;;;2.35;;
26474;SDS011;14161;52.270;10.334;2023-05-02T14:07:49;7.68;;;2.65;;
26474;SDS011;14161;52.270;10.334;2023-05-02T14:10:15;5.75;;;1.70;;
26474;SDS011;14161;52.270;10.334;2023-05-02T14:12:40;4.65;;;2.22;;
26474;SDS011;14161;52.270;10.334;2023-05-02T14:15:06;6.28;;;2.15;;
26474;SDS011;14161;52.270;10.334;2023-05-02T14:17:31;3.05;;;1.90;;
26474;SDS011;14161;52.270;10.334;2023-05-02T14:19:57;4.53;;;1.65;;
26474;SDS011;14161;52.270;10.334;2023-05-02T14:22:22;3.55;;;1.60;;
26474;SDS011;14161;52.270;10.334;2023-05-02T14:24:48;7.10;;;2.13;;
26474;SDS011;14161;52.270;10.334;2023-05-02T14:27:13;4.22;;;1.77;;
26474;SDS011;14161;52.270;10.334;2023-05-02T14:29:42;6.45;;;2.22;;
26474;SDS011;14161;52.270;10.334;2023-05-02T14:32:08;4.32;;;1.65;;
26474;SDS011;14161;52.270;10.334;2023-05-02T14:34:34;3.35;;;1.80;;
26474;SDS011;14161;52.270;10.334;2023-05-02T14:37:00;4.97;;;1.98;;
26474;SDS011;14161;52.270;10.334;2023-05-02T14:39:25;4.00;;;2.22;;
26474;SDS011;14161;52.270;10.334;2023-05-02T14:41:51;4.45;;;1.65;;
26474;SDS011;14161;52.270;10.334;2023-05-02T14:44:17;4.43;;;1.50;;
26474;SDS011;14161;52.270;10.334;2023-05-02T14:46:42;4.78;;;1.48;;
26474;SDS011;14161;52.270;10.334;2023-05-02T14:49:08;3.67;;;1.30;;
26474;SDS011;14161;52.270;10.334;2023-05-02T14:51:36;2.47;;;1.20;;
26474;SDS011;14161;52.270;10.334;2023-05-02T14:54:02;2.47;;;1.20;;
26474;SDS011;14161;52.270;10.334;2023-05-02T14:56:28;4.22;;;1.52;;
26474;SDS011;14161;52.270;10.334;2023-05-02T14:58:54;5.45;;;1.80;;
26474;SDS011;14161;52.270;10.334;2023-05-02T15:01:20;4.00;;;1.45;;
26474;SDS011;14161;52.270;10.334;2023-05-02T15:03:46;5.28;;;1.52;;
26474;SDS011;14161;52.270;10.334;2023-05-02T15:06:13;4.22;;;1.63;;
26474;SDS011;14161;52.270;10.334;2023-05-02T15:08:39;2.67;;;1.23;;
26474;SDS011;14161;52.270;10.334;2023-05-02T15:11:05;5.53;;;1.08;;
26474;SDS011;14161;52.270;10.334;2023-05-02T15:13:31;5.25;;;1.02;;
26474;SDS011;14161;52.270;10.334;2023-05-02T15:15:56;5.85;;;1.40;;
26474;SDS011;14161;52.270;10.334;2023-05-02T15:18:22;3.25;;;1.50;;
26474;SDS011;14161;52.270;10.334;2023-05-02T15:20:47;3.38;;;1.30;;
26474;SDS011;14161;52.270;10.334;2023-05-02T15:23:13;3.10;;;0.95;;
26474;SDS011;14161;52.270;10.334;2023-05-02T15:25:38;3.03;;;1.20;;
26474;SDS011;14161;52.270;10.334;2023-05-02T15:28:04;2.55;;;1.08;;
26474;SDS011;14161;52.270;10.334;2023-05-02T15:30:29;1.98;;;1.10;;
26474;SDS011;14161;52.270;10.334;2023-05-02T15:32:55;2.97;;;0.80;;
26474;SDS011;14161;52.270;10.334;2023-05-02T15:35:20;1.13;;;0.80;;
26474;SDS011;14161;52.270;10.334;2023-05-02T15:37:46;1.95;;;1.20;;
26474;SDS011;14161;52.270;10.334;2023-05-02T15:40:11;3.85;;;0.85;;
26474;SDS011;14161;52.270;10.334;2023-05-02T15:42:38;2.28;;;1.17;;
26474;SDS011;14161;52.270;10.334;2023-05-02T15:45:04;5.78;;;1.00;;
26474;SDS011;14161;52.270;10.334;2023-05-02T15:47:30;3.42;;;1.38;;
26474;SDS011;14161;52.270;10.334;2023-05-02T15:49:55;10.82;;;5.97;;
26474;SDS011;14161;52.270;10.334;2023-05-02T15:52:22;4.80;;;3.08;;
26474;SDS011;14161;52.270;10.334;2023-05-02T15:54:48;2.75;;;1.58;;
26474;SDS011;14161;52.270;10.334;2023-05-02T15:57:16;3.90;;;2.40;;
26474;SDS011;14161;52.270;10.334;2023-05-02T15:59:42;2.45;;;1.73;;
26474;SDS011;14161;52.270;10.334;2023-05-02T16:02:07;2.50;;;1.80;;
26474;SDS011;14161;52.270;10.334;2023-05-02T16:04:32;3.03;;;1.92;;
26474;SDS011;14161;52.270;10.334;2023-05-02T16:06:59;4.05;;;2.47;;
26474;SDS011;14161;52.270;10.334;2023-05-02T16:09:25;6.15;;;1.40;;
26474;SDS011;14161;52.270;10.334;2023-05-02T16:11:52;2.22;;;1.08;;
26474;SDS011;14161;52.270;10.334;2023-05-02T16:14:17;2.15;;;1.02;;
26474;SDS011;14161;52.270;10.334;2023-05-02T16:16:43;2.67;;;1.00;;
26474;SDS011;14161;52.270;10.334;2023-05-02T16:19:09;2.40;;;1.00;;
26474;SDS011;14161;52.270;10.334;2023-05-02T16:21:40;1.80;;;0.70;;
26474;SDS011;14161;52.270;10.334;2023-05-02T16:24:06;1.88;;;0.80;;
26474;SDS011;14161;52.270;10.334;2023-05-02T16:26:32;1.08;;;0.60;;
26474;SDS011;14161;52.270;10.334;2023-05-02T16:28:58;0.65;;;0.60;;
26474;SDS011;14161;52.270;10.334;2023-05-02T16:31:23;3.25;;;0.80;;
26474;SDS011;14161;52.270;10.334;2023-05-02T16:33:49;1.55;;;0.88;;
26474;SDS011;14161;52.270;10.334;2023-05-02T16:36:15;2.35;;;0.80;;
26474;SDS011;14161;52.270;10.334;2023-05-02T16:38:40;2.28;;;0.90;;
26474;SDS011;14161;52.270;10.334;2023-05-02T16:41:06;1.92;;;1.00;;
26474;SDS011;14161;52.270;10.334;2023-05-02T16:43:31;2.33;;;1.45;;
26474;SDS011;14161;52.270;10.334;2023-05-02T16:45:58;2.05;;;1.45;;
26474;SDS011;14161;52.270;10.334;2023-05-02T16:48:25;2.90;;;1.48;;
26474;SDS011;14161;52.270;10.334;2023-05-02T16:50:51;3.10;;;1.17;;
26474;SDS011;14161;52.270;10.334;2023-05-02T16:53:16;3.30;;;1.30;;
26474;SDS011;14161;52.270;10.334;2023-05-02T16:55:44;3.30;;;2.40;;
26474;SDS011;14161;52.270;10.334;2023-05-02T16:58:10;7.22;;;4.30;;
26474;SDS011;14161;52.270;10.334;2023-05-02T17:00:35;4.65;;;1.73;;
26474;SDS011;14161;52.270;10.334;2023-05-02T17:03:04;3.38;;;1.50;;
26474;SDS011;14161;52.270;10.334;2023-05-02T17:05:30;2.58;;;1.30;;
26474;SDS011;14161;52.270;10.334;2023-05-02T17:07:57;4.25;;;1.02;;
26474;SDS011;14161;52.270;10.334;2023-05-02T17:10:26;4.38;;;1.15;;
26474;SDS011;14161;52.270;10.334;2023-05-02T17:12:52;3.55;;;1.40;;
26474;SDS011;14161;52.270;10.334;2023-05-02T17:15:21;4.57;;;1.40;;
26474;SDS011;14161;52.270;10.334;2023-05-02T17:17:47;5.20;;;1.38;;
26474;SDS011;14161;52.270;10.334;2023-05-02T17:20:12;2.13;;;1.40;;
26474;SDS011;14161;52.270;10.334;2023-05-02T17:22:38;2.55;;;1.75;;
26474;SDS011;14161;52.270;10.334;2023-05-02T17:25:07;4.50;;;1.50;;
26474;SDS011;14161;52.270;10.334;2023-05-02T17:27:33;3.08;;;1.23;;
26474;SDS011;14161;52.270;10.334;2023-05-02T17:29:59;4.47;;;1.23;;
26474;SDS011;14161;52.270;10.334;2023-05-02T17:32:24;2.67;;;0.90;;
26474;SDS011;14161;52.270;10.334;2023-05-02T17:34:50;6.88;;;1.00;;
26474;SDS011;14161;52.270;10.334;2023-05-02T17:37:16;3.33;;;0.88;;
26474;SDS011;14161;52.270;10.334;2023-05-02T17:39:42;2.00;;;1.08;;
26474;SDS011;14161;52.270;10.334;2023-05-02T17:42:07;12.50;;;5.28;;
26474;SDS011;14161;52.270;10.334;2023-05-02T17:44:33;45.95;;;24.70;;
26474;SDS011;14161;52.270;10.334;2023-05-02T17:47:00;21.15;;;12.57;;
26474;SDS011;14161;52.270;10.334;2023-05-02T17:49:26;7.80;;;4.22;;
26474;SDS011;14161;52.270;10.334;2023-05-02T17:51:52;3.72;;;2.03;;
26474;SDS011;14161;52.270;10.334;2023-05-02T17:54:17;4.38;;;1.73;;
26474;SDS011;14161;52.270;10.334;2023-05-02T17:56:43;3.38;;;1.77;;
26474;SDS011;14161;52.270;10.334;2023-05-02T17:59:09;3.60;;;1.35;;
26474;SDS011;14161;52.270;10.334;2023-05-02T18:01:36;1.80;;;1.08;;
26474;SDS011;14161;52.270;10.334;2023-05-02T18:04:01;2.65;;;1.30;;
26474;SDS011;14161;52.270;10.334;2023-05-02T18:06:29;2.00;;;1.00;;
26474;SDS011;14161;52.270;10.334;2023-05-02T18:08:56;4.25;;;1.27;;
26474;SDS011;14161;52.270;10.334;2023-05-02T18:11:35;2.28;;;1.40;;
26474;SDS011;14161;52.270;10.334;2023-05-02T18:14:01;3.47;;;2.28;;
26474;SDS011;14161;52.270;10.334;2023-05-02T18:16:30;3.65;;;1.70;;
26474;SDS011;14161;52.270;10.334;2023-05-02T18:18:58;3.78;;;1.33;;
26474;SDS011;14161;52.270;10.334;2023-05-02T18:21:23;3.08;;;0.95;;
26474;SDS011;14161;52.270;10.334;2023-05-02T18:23:50;4.07;;;0.90;;
26474;SDS011;14161;52.270;10.334;2023-05-02T18:26:15;1.77;;;0.88;;
26474;SDS011;14161;52.270;10.334;2023-05-02T18:28:41;2.25;;;0.70;;
26474;SDS011;14161;52.270;10.334;2023-05-02T18:31:13;5.68;;;2.40;;
26474;SDS011;14161;52.270;10.334;2023-05-02T18:33:42;4.60;;;2.05;;
26474;SDS011;14161;52.270;10.334;2023-05-02T18:36:08;1.52;;;0.90;;
26474;SDS011;14161;52.270;10.334;2023-05-02T18:38:33;2.13;;;1.20;;
26474;SDS011;14161;52.270;10.334;2023-05-02T18:41:00;2.00;;;0.60;;
26474;SDS011;14161;52.270;10.334;2023-05-02T18:43:26;3.28;;;0.80;;
26474;SDS011;14161;52.270;10.334;2023-05-02T18:45:51;3.50;;;2.13;;
26474;SDS011;14161;52.270;10.334;2023-05-02T18:48:17;2.58;;;1.77;;
26474;SDS011;14161;52.270;10.334;2023-05-02T18:50:42;3.50;;;1.25;;
26474;SDS011;14161;52.270;10.334;2023-05-02T18:53:08;2.13;;;0.80;;
26474;SDS011;14161;52.270;10.334;2023-05-02T18:55:34;1.52;;;0.82;;
26474;SDS011;14161;52.270;10.334;2023-05-02T18:58:00;2.08;;;0.70;;
26474;SDS011;14161;52.270;10.334;2023-05-02T19:00:25;1.92;;;0.75;;
26474;SDS011;14161;52.270;10.334;2023-05-02T19:02:54;2.38;;;1.05;;
26474;SDS011;14161;52.270;10.334;2023-05-02T19:05:19;1.92;;;1.00;;
26474;SDS011;14161;52.270;10.334;2023-05-02T19:07:45;3.85;;;0.90;;
26474;SDS011;14161;52.270;10.334;2023-05-02T19:10:10;1.65;;;0.70;;
26474;SDS011;14161;52.270;10.334;2023-05-02T19:12:36;2.17;;;0.85;;
26474;SDS011;14161;52.270;10.334;2023-05-02T19:15:02;1.38;;;0.90;;
26474;SDS011;14161;52.270;10.334;2023-05-02T19:17:29;2.83;;;1.02;;
26474;SDS011;14161;52.270;10.334;2023-05-02T19:19:54;1.70;;;0.93;;
26474;SDS011;14161;52.270;10.334;2023-05-02T19:22:20;1.95;;;0.82;;
26474;SDS011;14161;52.270;10.334;2023-05-02T19:24:46;1.60;;;0.90;;
26474;SDS011;14161;52.270;10.334;2023-05-02T19:27:12;1.10;;;0.75;;
26474;SDS011;14161;52.270;10.334;2023-05-02T19:29:37;3.75;;;0.98;;
26474;SDS011;14161;52.270;10.334;2023-05-02T19:32:03;2.17;;;0.90;;
26474;SDS011;14161;52.270;10.334;2023-05-02T19:34:28;1.42;;;0.63;;
26474;SDS011;14161;52.270;10.334;2023-05-02T19:36:54;2.20;;;0.75;;
26474;SDS011;14161;52.270;10.334;2023-05-02T19:39:19;1.25;;;0.60;;
26474;SDS011;14161;52.270;10.334;2023-05-02T19:41:45;1.17;;;0.80;;
26474;SDS011;14161;52.270;10.334;2023-05-02T19:44:12;2.33;;;0.85;;
26474;SDS011;14161;52.270;10.334;2023-05-02T19:46:38;4.13;;;0.70;;
26474;SDS011;14161;52.270;10.334;2023-05-02T19:49:03;2.38;;;1.08;;
26474;SDS011;14161;52.270;10.334;2023-05-02T19:51:29;3.03;;;0.82;;
26474;SDS011;14161;52.270;10.334;2023-05-02T19:53:58;3.03;;;1.20;;
26474;SDS011;14161;52.270;10.334;2023-05-02T19:56:24;1.60;;;0.70;;
26474;SDS011;14161;52.270;10.334;2023-05-02T19:58:50;1.38;;;0.65;;
26474;SDS011;14161;52.270;10.334;2023-05-02T20:01:16;1.30;;;0.73;;
26474;SDS011;14161;52.270;10.334;2023-05-02T20:03:42;3.38;;;0.98;;
26474;SDS011;14161;52.270;10.334;2023-05-02T20:06:07;2.50;;;1.00;;
26474;SDS011;14161;52.270;10.334;2023-05-02T20:08:33;1.55;;;0.80;;
26474;SDS011;14161;52.270;10.334;2023-05-02T20:10:58;2.40;;;0.80;;
26474;SDS011;14161;52.270;10.334;2023-05-02T20:13:23;3.80;;;1.00;;
26474;SDS011;14161;52.270;10.334;2023-05-02T20:15:49;2.60;;;0.98;;
26474;SDS011;14161;52.270;10.334;2023-05-02T20:18:15;2.20;;;0.75;;
26474;SDS011;14161;52.270;10.334;2023-05-02T20:20:41;2.42;;;0.80;;
26474;SDS011;14161;52.270;10.334;2023-05-02T20:23:06;2.38;;;0.88;;
26474;SDS011;14161;52.270;10.334;2023-05-02T20:25:32;1.80;;;0.80;;
26474;SDS011;14161;52.270;10.334;2023-05-02T20:28:00;1.92;;;0.77;;
26474;SDS011;14161;52.270;10.334;2023-05-02T20:30:26;0.95;;;0.50;;
26474;SDS011;14161;52.270;10.334;2023-05-02T20:32:51;1.70;;;0.80;;
26474;SDS011;14161;52.270;10.334;2023-05-02T20:35:17;2.10;;;1.00;;
26474;SDS011;14161;52.270;10.334;2023-05-02T20:37:43;3.97;;;1.13;;
26474;SDS011;14161;52.270;10.334;2023-05-02T20:40:08;2.30;;;0.85;;
26474;SDS011;14161;52.270;10.334;2023-05-02T20:42:34;2.42;;;0.85;;
26474;SDS011;14161;52.270;10.334;2023-05-02T20:45:02;1.25;;;0.93;;
26474;SDS011;14161;52.270;10.334;2023-05-02T20:47:29;0.75;;;0.55;;
26474;SDS011;14161;52.270;10.334;2023-05-02T20:49:55;1.75;;;0.68;;
26474;SDS011;14161;52.270;10.334;2023-05-02T20:52:20;1.30;;;0.70;;
26474;SDS011;14161;52.270;10.334;2023-05-02T20:54:47;4.50;;;1.13;;
26474;SDS011;14161;52.270;10.334;2023-05-02T20:57:13;1.98;;;0.60;;
26474;SDS011;14161;52.270;10.334;2023-05-02T20:59:39;1.95;;;0.77;;
26474;SDS011;14161;52.270;10.334;2023-05-02T21:02:05;1.38;;;0.50;;
26474;SDS011;14161;52.270;10.334;2023-05-02T21:04:31;2.58;;;0.88;;
26474;SDS011;14161;52.270;10.334;2023-05-02T21:06:56;1.42;;;0.75;;
26474;SDS011;14161;52.270;10.334;2023-05-02T21:09:22;2.80;;;0.82;;
26474;SDS011;14161;52.270;10.334;2023-05-02T21:11:48;5.80;;;0.77;;
26474;SDS011;14161;52.270;10.334;2023-05-02T21:14:15;2.33;;;0.98;;
26474;SDS011;14161;52.270;10.334;2023-05-02T21:16:41;2.63;;;0.98;;
26474;SDS011;14161;52.270;10.334;2023-05-02T21:19:06;2.28;;;1.05;;